sensor_id;sensor_type;location;lat;lon;timestamp;temperature;humidity
54540;SHT30;40438;52.992;18.604;2023-03-19T00:00:17;20.00;54.94
54540;SHT30;40438;52.992;18.604;2023-03-19T00:02:43;20.03;54.88
54540;SHT30;40438;52.992;18.604;2023-03-19T00:05:09;19.98;55.03
54540;SHT30;40438;52.992;18.604;2023-03-19T00:07:34;19.98;55.00
54540;SHT30;40438;52.992;18.604;2023-03-19T00:10:00;19.96;55.29
54540;SHT30;40438;52.992;18.604;2023-03-19T00:12:27;19.94;55.22
54540;SHT30;40438;52.992;18.604;2023-03-19T00:14:53;19.97;55.03
54540;SHT30;40438;52.992;18.604;2023-03-19T00:17:19;19.91;55.35
54540;SHT30;40438;52.992;18.604;2023-03-19T00:19:44;19.93;55.26
54540;SHT30;40438;52.992;18.604;2023-03-19T00:22:10;19.88;55.43
54540;SHT30;40438;52.992;18.604;2023-03-19T00:24:36;19.87;55.40
54540;SHT30;40438;52.992;18.604;2023-03-19T00:27:02;19.90;55.38
54540;SHT30;40438;52.992;18.604;2023-03-19T00:29:29;19.85;55.36
54540;SHT30;40438;52.992;18.604;2023-03-19T00:31:55;19.84;55.46
54540;SHT30;40438;52.992;18.604;2023-03-19T00:34:20;19.83;55.52
54540;SHT30;40438;52.992;18.604;2023-03-19T00:36:47;19.84;55.42
54540;SHT30;40438;52.992;18.604;2023-03-19T00:39:13;19.81;55.43
54540;SHT30;40438;52.992;18.604;2023-03-19T00:41:39;19.84;55.29
54540;SHT30;40438;52.992;18.604;2023-03-19T00:44:05;19.78;55.50
54540;SHT30;40438;52.992;18.604;2023-03-19T00:46:33;19.75;55.44
54540;SHT30;40438;52.992;18.604;2023-03-19T00:48:58;19.78;55.52
54540;SHT30;40438;52.992;18.604;2023-03-19T00:51:24;19.77;55.44
54540;SHT30;40438;52.992;18.604;2023-03-19T00:53:51;19.71;55.35
54540;SHT30;40438;52.992;18.604;2023-03-19T00:56:17;19.78;55.25
54540;SHT30;40438;52.992;18.604;2023-03-19T00:58:45;19.73;55.50
54540;SHT30;40438;52.992;18.604;2023-03-19T01:01:12;19.71;55.48
54540;SHT30;40438;52.992;18.604;2023-03-19T01:03:40;19.71;55.54
54540;SHT30;40438;52.992;18.604;2023-03-19T01:06:06;19.66;55.54
54540;SHT30;40438;52.992;18.604;2023-03-19T01:08:32;19.67;55.49
54540;SHT30;40438;52.992;18.604;2023-03-19T01:11:04;19.66;55.68
54540;SHT30;40438;52.992;18.604;2023-03-19T01:13:30;19.67;55.42
54540;SHT30;40438;52.992;18.604;2023-03-19T01:15:55;19.67;55.40
54540;SHT30;40438;52.992;18.604;2023-03-19T01:18:21;19.66;55.34
54540;SHT30;40438;52.992;18.604;2023-03-19T01:20:48;19.63;55.53
54540;SHT30;40438;52.992;18.604;2023-03-19T01:23:14;19.63;55.63
54540;SHT30;40438;52.992;18.604;2023-03-19T01:25:40;19.62;55.49
54540;SHT30;40438;52.992;18.604;2023-03-19T01:28:06;19.57;55.53
54540;SHT30;40438;52.992;18.604;2023-03-19T01:30:32;19.62;55.54
54540;SHT30;40438;52.992;18.604;2023-03-19T01:33:19;19.60;55.42
54540;SHT30;40438;52.992;18.604;2023-03-19T01:35:53;19.62;55.43
54540;SHT30;40438;52.992;18.604;2023-03-19T01:38:22;19.56;55.41
54540;SHT30;40438;52.992;18.604;2023-03-19T01:40:49;19.54;55.52
54540;SHT30;40438;52.992;18.604;2023-03-19T01:43:17;19.54;55.61
54540;SHT30;40438;52.992;18.604;2023-03-19T01:45:56;19.53;55.63
54540;SHT30;40438;52.992;18.604;2023-03-19T01:48:51;19.52;55.52
54540;SHT30;40438;52.992;18.604;2023-03-19T01:51:23;19.52;55.38
54540;SHT30;40438;52.992;18.604;2023-03-19T01:54:17;19.53;55.04
54540;SHT30;40438;52.992;18.604;2023-03-19T01:56:57;19.53;55.33
54540;SHT30;40438;52.992;18.604;2023-03-19T01:59:46;19.50;55.36
54540;SHT30;40438;52.992;18.604;2023-03-19T02:02:27;19.50;55.41
54540;SHT30;40438;52.992;18.604;2023-03-19T02:05:00;19.50;55.36
54540;SHT30;40438;52.992;18.604;2023-03-19T02:07:29;19.50;55.20
54540;SHT30;40438;52.992;18.604;2023-03-19T02:09:57;19.47;55.38
54540;SHT30;40438;52.992;18.604;2023-03-19T02:12:24;19.46;55.31
54540;SHT30;40438;52.992;18.604;2023-03-19T02:14:50;19.47;55.36
54540;SHT30;40438;52.992;18.604;2023-03-19T02:17:16;19.43;55.45
54540;SHT30;40438;52.992;18.604;2023-03-19T02:19:45;19.41;55.29
54540;SHT30;40438;52.992;18.604;2023-03-19T02:22:15;19.41;55.40
54540;SHT30;40438;52.992;18.604;2023-03-19T02:24:50;19.42;55.52
54540;SHT30;40438;52.992;18.604;2023-03-19T02:27:19;19.45;55.29
54540;SHT30;40438;52.992;18.604;2023-03-19T02:29:48;19.39;55.38
54540;SHT30;40438;52.992;18.604;2023-03-19T02:32:13;19.39;55.39
54540;SHT30;40438;52.992;18.604;2023-03-19T02:34:41;19.36;55.56
54540;SHT30;40438;52.992;18.604;2023-03-19T02:37:12;19.35;55.60
54540;SHT30;40438;52.992;18.604;2023-03-19T02:39:45;19.33;55.56
54540;SHT30;40438;52.992;18.604;2023-03-19T02:42:14;19.33;55.55
54540;SHT30;40438;52.992;18.604;2023-03-19T02:44:43;19.31;55.44
54540;SHT30;40438;52.992;18.604;2023-03-19T02:47:09;19.31;55.72
54540;SHT30;40438;52.992;18.604;2023-03-19T02:49:35;19.33;55.59
54540;SHT30;40438;52.992;18.604;2023-03-19T02:52:01;19.28;55.57
54540;SHT30;40438;52.992;18.604;2023-03-19T02:54:27;19.31;55.52
54540;SHT30;40438;52.992;18.604;2023-03-19T02:56:53;19.31;55.28
54540;SHT30;40438;52.992;18.604;2023-03-19T02:59:18;19.28;55.61
54540;SHT30;40438;52.992;18.604;2023-03-19T03:01:46;19.23;55.65
54540;SHT30;40438;52.992;18.604;2023-03-19T03:04:12;19.31;55.41
54540;SHT30;40438;52.992;18.604;2023-03-19T03:06:37;19.26;55.53
54540;SHT30;40438;52.992;18.604;2023-03-19T03:09:03;19.28;55.28
54540;SHT30;40438;52.992;18.604;2023-03-19T03:11:29;19.22;55.36
54540;SHT30;40438;52.992;18.604;2023-03-19T03:13:55;19.12;55.80
54540;SHT30;40438;52.992;18.604;2023-03-19T03:16:20;19.28;55.02
54540;SHT30;40438;52.992;18.604;2023-03-19T03:18:48;19.21;54.84
54540;SHT30;40438;52.992;18.604;2023-03-19T03:21:13;19.28;54.67
54540;SHT30;40438;52.992;18.604;2023-03-19T03:23:39;19.32;54.66
54540;SHT30;40438;52.992;18.604;2023-03-19T03:26:05;19.32;54.42
54540;SHT30;40438;52.992;18.604;2023-03-19T03:28:32;19.33;54.80
54540;SHT30;40438;52.992;18.604;2023-03-19T03:30:58;19.64;54.03
54540;SHT30;40438;52.992;18.604;2023-03-19T03:33:23;19.75;53.69
54540;SHT30;40438;52.992;18.604;2023-03-19T03:35:51;19.80;53.68
54540;SHT30;40438;52.992;18.604;2023-03-19T03:38:16;19.81;53.53
54540;SHT30;40438;52.992;18.604;2023-03-19T03:40:42;19.77;53.45
54540;SHT30;40438;52.992;18.604;2023-03-19T03:43:08;19.78;53.33
54540;SHT30;40438;52.992;18.604;2023-03-19T03:45:34;19.77;53.32
54540;SHT30;40438;52.992;18.604;2023-03-19T03:48:00;19.77;53.31
54540;SHT30;40438;52.992;18.604;2023-03-19T03:50:26;19.71;53.33
54540;SHT30;40438;52.992;18.604;2023-03-19T03:52:56;19.60;53.43
54540;SHT30;40438;52.992;18.604;2023-03-19T03:55:21;19.50;53.38
54540;SHT30;40438;52.992;18.604;2023-03-19T03:57:47;19.35;53.76
54540;SHT30;40438;52.992;18.604;2023-03-19T04:00:13;19.35;54.11
54540;SHT30;40438;52.992;18.604;2023-03-19T04:02:39;19.29;54.10
54540;SHT30;40438;52.992;18.604;2023-03-19T04:05:06;19.33;54.19
54540;SHT30;40438;52.992;18.604;2023-03-19T04:07:32;19.29;54.37
54540;SHT30;40438;52.992;18.604;2023-03-19T04:09:59;19.16;54.01
54540;SHT30;40438;52.992;18.604;2023-03-19T04:12:26;19.23;54.15
54540;SHT30;40438;52.992;18.604;2023-03-19T04:14:52;19.21;54.57
54540;SHT30;40438;52.992;18.604;2023-03-19T04:17:18;19.02;54.63
54540;SHT30;40438;52.992;18.604;2023-03-19T04:19:44;19.05;54.93
54540;SHT30;40438;52.992;18.604;2023-03-19T04:22:10;19.12;54.84
54540;SHT30;40438;52.992;18.604;2023-03-19T04:24:36;19.16;54.70
54540;SHT30;40438;52.992;18.604;2023-03-19T04:27:03;19.26;54.85
54540;SHT30;40438;52.992;18.604;2023-03-19T04:29:30;19.28;54.59
54540;SHT30;40438;52.992;18.604;2023-03-19T04:31:56;19.31;54.70
54540;SHT30;40438;52.992;18.604;2023-03-19T04:34:21;19.29;54.67
54540;SHT30;40438;52.992;18.604;2023-03-19T04:36:47;19.32;54.58
54540;SHT30;40438;52.992;18.604;2023-03-19T04:39:13;19.31;54.70
54540;SHT30;40438;52.992;18.604;2023-03-19T04:41:39;19.35;54.80
54540;SHT30;40438;52.992;18.604;2023-03-19T04:44:38;19.33;54.78
54540;SHT30;40438;52.992;18.604;2023-03-19T04:47:05;19.32;54.75
54540;SHT30;40438;52.992;18.604;2023-03-19T04:49:43;19.31;54.82
54540;SHT30;40438;52.992;18.604;2023-03-19T04:52:08;19.33;54.77
54540;SHT30;40438;52.992;18.604;2023-03-19T04:54:34;19.28;54.89
54540;SHT30;40438;52.992;18.604;2023-03-19T04:57:00;19.26;54.88
54540;SHT30;40438;52.992;18.604;2023-03-19T04:59:31;19.25;55.16
54540;SHT30;40438;52.992;18.604;2023-03-19T05:01:58;19.26;54.76
54540;SHT30;40438;52.992;18.604;2023-03-19T05:04:24;19.23;54.89
54540;SHT30;40438;52.992;18.604;2023-03-19T05:06:53;19.19;54.98
54540;SHT30;40438;52.992;18.604;2023-03-19T05:09:18;19.23;54.95
54540;SHT30;40438;52.992;18.604;2023-03-19T05:11:44;19.31;54.71
54540;SHT30;40438;52.992;18.604;2023-03-19T05:14:16;19.26;54.86
54540;SHT30;40438;52.992;18.604;2023-03-19T05:16:59;18.98;54.99
54540;SHT30;40438;52.992;18.604;2023-03-19T05:19:30;19.36;53.98
54540;SHT30;40438;52.992;18.604;2023-03-19T05:21:56;19.50;53.66
54540;SHT30;40438;52.992;18.604;2023-03-19T05:24:23;19.53;53.46
54540;SHT30;40438;52.992;18.604;2023-03-19T05:26:50;19.54;53.43
54540;SHT30;40438;52.992;18.604;2023-03-19T05:29:37;19.45;53.25
54540;SHT30;40438;52.992;18.604;2023-03-19T05:32:24;19.59;53.37
54540;SHT30;40438;52.992;18.604;2023-03-19T05:34:50;19.69;53.21
54540;SHT30;40438;52.992;18.604;2023-03-19T05:37:17;19.74;53.09
54540;SHT30;40438;52.992;18.604;2023-03-19T05:39:48;19.77;53.12
54540;SHT30;40438;52.992;18.604;2023-03-19T05:42:14;19.78;52.91
54540;SHT30;40438;52.992;18.604;2023-03-19T05:44:40;19.80;52.84
54540;SHT30;40438;52.992;18.604;2023-03-19T05:47:20;19.81;52.61
54540;SHT30;40438;52.992;18.604;2023-03-19T05:49:52;19.80;52.66
54540;SHT30;40438;52.992;18.604;2023-03-19T05:52:18;19.75;52.75
54540;SHT30;40438;52.992;18.604;2023-03-19T05:54:44;19.75;52.80
54540;SHT30;40438;52.992;18.604;2023-03-19T05:57:16;19.71;52.69
54540;SHT30;40438;52.992;18.604;2023-03-19T06:00:09;19.67;52.88
54540;SHT30;40438;52.992;18.604;2023-03-19T06:02:35;19.74;52.86
54540;SHT30;40438;52.992;18.604;2023-03-19T06:05:35;19.91;53.19
54540;SHT30;40438;52.992;18.604;2023-03-19T06:08:19;20.26;52.49
54540;SHT30;40438;52.992;18.604;2023-03-19T06:11:14;20.46;51.91
54540;SHT30;40438;52.992;18.604;2023-03-19T06:13:42;20.59;51.78
54540;SHT30;40438;52.992;18.604;2023-03-19T06:16:08;20.60;51.63
54540;SHT30;40438;52.992;18.604;2023-03-19T06:18:40;20.63;51.67
54540;SHT30;40438;52.992;18.604;2023-03-19T06:21:11;20.69;51.54
54540;SHT30;40438;52.992;18.604;2023-03-19T06:23:37;20.82;51.19
54540;SHT30;40438;52.992;18.604;2023-03-19T06:26:05;20.86;50.75
54540;SHT30;40438;52.992;18.604;2023-03-19T06:28:35;20.82;51.08
54540;SHT30;40438;52.992;18.604;2023-03-19T06:31:03;20.87;51.10
54540;SHT30;40438;52.992;18.604;2023-03-19T06:34:07;20.94;51.49
54540;SHT30;40438;52.992;18.604;2023-03-19T06:36:40;20.96;51.80
54540;SHT30;40438;52.992;18.604;2023-03-19T06:39:09;21.01;51.78
54540;SHT30;40438;52.992;18.604;2023-03-19T06:41:35;20.99;51.71
54540;SHT30;40438;52.992;18.604;2023-03-19T06:44:11;20.97;51.77
54540;SHT30;40438;52.992;18.604;2023-03-19T06:46:36;20.94;52.01
54540;SHT30;40438;52.992;18.604;2023-03-19T06:49:02;21.06;51.45
54540;SHT30;40438;52.992;18.604;2023-03-19T06:51:28;21.10;51.90
54540;SHT30;40438;52.992;18.604;2023-03-19T06:53:55;21.13;51.74
54540;SHT30;40438;52.992;18.604;2023-03-19T06:56:21;21.13;51.71
54540;SHT30;40438;52.992;18.604;2023-03-19T06:58:47;21.13;51.78
54540;SHT30;40438;52.992;18.604;2023-03-19T07:01:13;21.15;51.20
54540;SHT30;40438;52.992;18.604;2023-03-19T07:03:38;21.15;51.39
54540;SHT30;40438;52.992;18.604;2023-03-19T07:06:04;21.15;51.51
54540;SHT30;40438;52.992;18.604;2023-03-19T07:08:30;21.20;51.71
54540;SHT30;40438;52.992;18.604;2023-03-19T07:11:02;21.22;51.69
54540;SHT30;40438;52.992;18.604;2023-03-19T07:13:28;21.21;51.57
54540;SHT30;40438;52.992;18.604;2023-03-19T07:15:54;21.21;51.58
54540;SHT30;40438;52.992;18.604;2023-03-19T07:18:19;21.21;51.43
54540;SHT30;40438;52.992;18.604;2023-03-19T07:20:45;21.20;51.68
54540;SHT30;40438;52.992;18.604;2023-03-19T07:23:11;21.30;51.41
54540;SHT30;40438;52.992;18.604;2023-03-19T07:25:37;21.34;51.36
54540;SHT30;40438;52.992;18.604;2023-03-19T07:28:04;21.38;51.08
54540;SHT30;40438;52.992;18.604;2023-03-19T07:30:30;21.38;50.97
54540;SHT30;40438;52.992;18.604;2023-03-19T07:32:56;21.38;51.09
54540;SHT30;40438;52.992;18.604;2023-03-19T07:35:21;21.41;51.28
54540;SHT30;40438;52.992;18.604;2023-03-19T07:37:47;21.38;51.04
54540;SHT30;40438;52.992;18.604;2023-03-19T07:40:13;21.40;50.98
54540;SHT30;40438;52.992;18.604;2023-03-19T07:42:39;21.38;51.14
54540;SHT30;40438;52.992;18.604;2023-03-19T07:45:07;21.54;50.59
54540;SHT30;40438;52.992;18.604;2023-03-19T07:47:33;21.61;50.51
54540;SHT30;40438;52.992;18.604;2023-03-19T07:49:59;21.66;50.61
54540;SHT30;40438;52.992;18.604;2023-03-19T07:52:25;21.65;51.55
54540;SHT30;40438;52.992;18.604;2023-03-19T07:54:51;21.68;51.82
54540;SHT30;40438;52.992;18.604;2023-03-19T07:57:18;21.72;52.11
54540;SHT30;40438;52.992;18.604;2023-03-19T07:59:44;21.72;52.07
54540;SHT30;40438;52.992;18.604;2023-03-19T08:02:12;21.75;52.17
54540;SHT30;40438;52.992;18.604;2023-03-19T08:04:38;21.76;52.29
54540;SHT30;40438;52.992;18.604;2023-03-19T08:07:04;21.76;52.28
54540;SHT30;40438;52.992;18.604;2023-03-19T08:09:29;21.80;52.45
54540;SHT30;40438;52.992;18.604;2023-03-19T08:11:55;21.75;52.35
54540;SHT30;40438;52.992;18.604;2023-03-19T08:14:21;21.73;52.56
54540;SHT30;40438;52.992;18.604;2023-03-19T08:16:47;21.73;52.52
54540;SHT30;40438;52.992;18.604;2023-03-19T08:19:14;21.76;52.50
54540;SHT30;40438;52.992;18.604;2023-03-19T08:21:40;21.76;52.63
54540;SHT30;40438;52.992;18.604;2023-03-19T08:24:06;21.79;52.52
54540;SHT30;40438;52.992;18.604;2023-03-19T08:26:32;21.80;52.43
54540;SHT30;40438;52.992;18.604;2023-03-19T08:28:57;21.76;52.45
54540;SHT30;40438;52.992;18.604;2023-03-19T08:31:23;21.78;52.61
54540;SHT30;40438;52.992;18.604;2023-03-19T08:33:49;21.79;52.63
54540;SHT30;40438;52.992;18.604;2023-03-19T08:36:16;21.78;52.81
54540;SHT30;40438;52.992;18.604;2023-03-19T08:38:42;21.79;52.59
54540;SHT30;40438;52.992;18.604;2023-03-19T08:41:08;21.79;52.49
54540;SHT30;40438;52.992;18.604;2023-03-19T08:43:35;21.82;52.41
54540;SHT30;40438;52.992;18.604;2023-03-19T08:46:02;21.80;52.35
54540;SHT30;40438;52.992;18.604;2023-03-19T08:48:28;21.80;52.41
54540;SHT30;40438;52.992;18.604;2023-03-19T08:50:55;21.80;52.43
54540;SHT30;40438;52.992;18.604;2023-03-19T08:53:23;21.82;52.70
54540;SHT30;40438;52.992;18.604;2023-03-19T08:55:52;21.82;52.39
54540;SHT30;40438;52.992;18.604;2023-03-19T08:58:18;21.85;52.52
54540;SHT30;40438;52.992;18.604;2023-03-19T09:00:44;21.86;52.31
54540;SHT30;40438;52.992;18.604;2023-03-19T09:03:10;21.89;52.45
54540;SHT30;40438;52.992;18.604;2023-03-19T09:05:36;21.86;52.87
54540;SHT30;40438;52.992;18.604;2023-03-19T09:08:01;21.90;52.51
54540;SHT30;40438;52.992;18.604;2023-03-19T09:10:29;21.89;52.91
54540;SHT30;40438;52.992;18.604;2023-03-19T09:12:54;21.89;52.71
54540;SHT30;40438;52.992;18.604;2023-03-19T09:15:20;21.89;53.08
54540;SHT30;40438;52.992;18.604;2023-03-19T09:17:46;21.88;53.07
54540;SHT30;40438;52.992;18.604;2023-03-19T09:20:12;21.89;53.18
54540;SHT30;40438;52.992;18.604;2023-03-19T09:22:37;21.93;53.13
54540;SHT30;40438;52.992;18.604;2023-03-19T09:25:04;21.95;52.99
54540;SHT30;40438;52.992;18.604;2023-03-19T09:27:31;21.93;52.69
54540;SHT30;40438;52.992;18.604;2023-03-19T09:29:57;21.92;52.85
54540;SHT30;40438;52.992;18.604;2023-03-19T09:32:23;21.92;53.14
54540;SHT30;40438;52.992;18.604;2023-03-19T09:34:49;21.96;52.96
54540;SHT30;40438;52.992;18.604;2023-03-19T09:37:15;22.02;53.20
54540;SHT30;40438;52.992;18.604;2023-03-19T09:39:40;22.05;53.03
54540;SHT30;40438;52.992;18.604;2023-03-19T09:42:18;22.02;53.19
54540;SHT30;40438;52.992;18.604;2023-03-19T09:44:51;22.02;53.43
54540;SHT30;40438;52.992;18.604;2023-03-19T09:47:25;22.03;53.42
54540;SHT30;40438;52.992;18.604;2023-03-19T09:49:52;22.03;53.65
54540;SHT30;40438;52.992;18.604;2023-03-19T09:52:37;22.06;53.43
54540;SHT30;40438;52.992;18.604;2023-03-19T09:55:12;22.06;53.57
54540;SHT30;40438;52.992;18.604;2023-03-19T09:57:39;22.08;53.73
54540;SHT30;40438;52.992;18.604;2023-03-19T10:00:19;22.09;54.57
54540;SHT30;40438;52.992;18.604;2023-03-19T10:02:46;22.12;54.19
54540;SHT30;40438;52.992;18.604;2023-03-19T10:05:19;22.09;54.35
54540;SHT30;40438;52.992;18.604;2023-03-19T10:07:55;22.09;54.57
54540;SHT30;40438;52.992;18.604;2023-03-19T10:10:33;22.05;54.73
54540;SHT30;40438;52.992;18.604;2023-03-19T10:13:09;22.02;55.00
54540;SHT30;40438;52.992;18.604;2023-03-19T10:15:43;21.98;55.15
54540;SHT30;40438;52.992;18.604;2023-03-19T10:18:11;21.96;54.96
54540;SHT30;40438;52.992;18.604;2023-03-19T10:20:48;21.98;54.91
54540;SHT30;40438;52.992;18.604;2023-03-19T10:23:28;22.02;54.88
54540;SHT30;40438;52.992;18.604;2023-03-19T10:25:58;22.02;54.66
54540;SHT30;40438;52.992;18.604;2023-03-19T10:28:26;21.99;54.79
54540;SHT30;40438;52.992;18.604;2023-03-19T10:30:59;21.99;54.75
54540;SHT30;40438;52.992;18.604;2023-03-19T10:33:35;22.03;55.02
54540;SHT30;40438;52.992;18.604;2023-03-19T10:36:08;22.02;54.94
54540;SHT30;40438;52.992;18.604;2023-03-19T10:38:38;22.00;54.69
54540;SHT30;40438;52.992;18.604;2023-03-19T10:41:15;21.99;54.58
54540;SHT30;40438;52.992;18.604;2023-03-19T10:43:52;21.98;54.36
54540;SHT30;40438;52.992;18.604;2023-03-19T10:46:20;21.96;54.27
54540;SHT30;40438;52.992;18.604;2023-03-19T10:48:46;21.96;54.21
54540;SHT30;40438;52.992;18.604;2023-03-19T10:51:13;21.99;54.30
54540;SHT30;40438;52.992;18.604;2023-03-19T10:53:41;21.96;54.09
54540;SHT30;40438;52.992;18.604;2023-03-19T10:56:16;21.96;54.48
54540;SHT30;40438;52.992;18.604;2023-03-19T10:58:55;22.02;54.93
54540;SHT30;40438;52.992;18.604;2023-03-19T11:01:26;22.02;55.04
54540;SHT30;40438;52.992;18.604;2023-03-19T11:03:56;22.02;55.06
54540;SHT30;40438;52.992;18.604;2023-03-19T11:06:25;22.05;54.47
54540;SHT30;40438;52.992;18.604;2023-03-19T11:08:54;22.03;54.11
54540;SHT30;40438;52.992;18.604;2023-03-19T11:11:25;22.05;54.46
54540;SHT30;40438;52.992;18.604;2023-03-19T11:13:52;22.08;54.84
54540;SHT30;40438;52.992;18.604;2023-03-19T11:16:18;22.09;53.11
54540;SHT30;40438;52.992;18.604;2023-03-19T11:18:46;21.57;39.22
54540;SHT30;40438;52.992;18.604;2023-03-19T11:21:21;21.26;39.47
54540;SHT30;40438;52.992;18.604;2023-03-19T11:23:51;21.54;39.22
54540;SHT30;40438;52.992;18.604;2023-03-19T11:26:18;22.10;35.69
54540;SHT30;40438;52.992;18.604;2023-03-19T11:28:49;21.49;34.80
54540;SHT30;40438;52.992;18.604;2023-03-19T11:31:19;21.57;37.13
54540;SHT30;40438;52.992;18.604;2023-03-19T11:33:56;20.93;34.51
54540;SHT30;40438;52.992;18.604;2023-03-19T11:36:31;20.79;36.57
54540;SHT30;40438;52.992;18.604;2023-03-19T11:39:18;20.33;37.23
54540;SHT30;40438;52.992;18.604;2023-03-19T11:41:57;20.38;37.73
54540;SHT30;40438;52.992;18.604;2023-03-19T11:44:29;20.51;35.53
54540;SHT30;40438;52.992;18.604;2023-03-19T11:47:04;20.55;35.07
54540;SHT30;40438;52.992;18.604;2023-03-19T11:49:50;20.46;35.17
54540;SHT30;40438;52.992;18.604;2023-03-19T11:52:26;20.28;35.54
54540;SHT30;40438;52.992;18.604;2023-03-19T11:55:04;20.28;36.46
54540;SHT30;40438;52.992;18.604;2023-03-19T11:57:52;20.17;35.52
54540;SHT30;40438;52.992;18.604;2023-03-19T12:00:27;20.00;35.66
54540;SHT30;40438;52.992;18.604;2023-03-19T12:03:20;19.94;39.08
54540;SHT30;40438;52.992;18.604;2023-03-19T12:05:55;20.68;39.47
54540;SHT30;40438;52.992;18.604;2023-03-19T12:08:31;21.08;39.17
54540;SHT30;40438;52.992;18.604;2023-03-19T12:11:05;21.38;39.62
54540;SHT30;40438;52.992;18.604;2023-03-19T12:13:43;21.54;39.71
54540;SHT30;40438;52.992;18.604;2023-03-19T12:16:17;21.59;40.17
54540;SHT30;40438;52.992;18.604;2023-03-19T12:18:56;21.62;40.67
54540;SHT30;40438;52.992;18.604;2023-03-19T12:21:40;21.68;41.02
54540;SHT30;40438;52.992;18.604;2023-03-19T12:24:16;21.68;41.47
54540;SHT30;40438;52.992;18.604;2023-03-19T12:26:51;21.71;41.87
54540;SHT30;40438;52.992;18.604;2023-03-19T12:29:25;21.69;42.38
54540;SHT30;40438;52.992;18.604;2023-03-19T12:32:11;21.73;42.72
54540;SHT30;40438;52.992;18.604;2023-03-19T12:34:40;21.73;43.16
54540;SHT30;40438;52.992;18.604;2023-03-19T12:37:17;21.75;43.97
54540;SHT30;40438;52.992;18.604;2023-03-19T12:39:53;21.78;44.14
54540;SHT30;40438;52.992;18.604;2023-03-19T12:42:28;21.79;44.61
54540;SHT30;40438;52.992;18.604;2023-03-19T12:44:56;21.76;44.84
54540;SHT30;40438;52.992;18.604;2023-03-19T12:47:24;21.76;45.23
54540;SHT30;40438;52.992;18.604;2023-03-19T12:49:54;21.78;45.56
54540;SHT30;40438;52.992;18.604;2023-03-19T12:52:24;21.82;45.48
54540;SHT30;40438;52.992;18.604;2023-03-19T12:54:55;21.80;46.01
54540;SHT30;40438;52.992;18.604;2023-03-19T12:57:30;21.76;45.55
54540;SHT30;40438;52.992;18.604;2023-03-19T13:00:01;21.69;46.03
54540;SHT30;40438;52.992;18.604;2023-03-19T13:02:32;21.65;46.52
54540;SHT30;40438;52.992;18.604;2023-03-19T13:05:04;21.65;46.56
54540;SHT30;40438;52.992;18.604;2023-03-19T13:07:38;21.65;46.84
54540;SHT30;40438;52.992;18.604;2023-03-19T13:10:08;21.61;46.88
54540;SHT30;40438;52.992;18.604;2023-03-19T13:12:37;21.61;47.02
54540;SHT30;40438;52.992;18.604;2023-03-19T13:15:07;21.61;46.90
54540;SHT30;40438;52.992;18.604;2023-03-19T13:17:37;21.61;47.10
54540;SHT30;40438;52.992;18.604;2023-03-19T13:20:15;21.58;47.31
54540;SHT30;40438;52.992;18.604;2023-03-19T13:22:52;21.57;47.28
54540;SHT30;40438;52.992;18.604;2023-03-19T13:25:22;21.57;46.84
54540;SHT30;40438;52.992;18.604;2023-03-19T13:27:51;21.55;46.70
54540;SHT30;40438;52.992;18.604;2023-03-19T13:30:19;21.52;46.73
54540;SHT30;40438;52.992;18.604;2023-03-19T13:32:47;21.49;46.71
54540;SHT30;40438;52.992;18.604;2023-03-19T13:38:18;21.47;46.88
54540;SHT30;40438;52.992;18.604;2023-03-19T13:40:47;21.44;46.91
54540;SHT30;40438;52.992;18.604;2023-03-19T13:43:41;21.42;46.98
54540;SHT30;40438;52.992;18.604;2023-03-19T13:46:40;21.41;47.04
54540;SHT30;40438;52.992;18.604;2023-03-19T13:49:30;21.44;46.96
54540;SHT30;40438;52.992;18.604;2023-03-19T13:52:01;21.41;46.96
54540;SHT30;40438;52.992;18.604;2023-03-19T13:54:34;21.38;46.90
54540;SHT30;40438;52.992;18.604;2023-03-19T13:57:15;21.40;46.98
54540;SHT30;40438;52.992;18.604;2023-03-19T13:59:43;21.35;47.07
54540;SHT30;40438;52.992;18.604;2023-03-19T14:05:16;21.38;46.95
54540;SHT30;40438;52.992;18.604;2023-03-19T14:07:46;21.35;46.98
54540;SHT30;40438;52.992;18.604;2023-03-19T14:10:16;21.35;47.00
54540;SHT30;40438;52.992;18.604;2023-03-19T14:12:44;21.32;47.02
54540;SHT30;40438;52.992;18.604;2023-03-19T14:15:15;21.32;47.03
54540;SHT30;40438;52.992;18.604;2023-03-19T14:17:44;21.34;47.01
54540;SHT30;40438;52.992;18.604;2023-03-19T14:20:22;21.34;47.00
54540;SHT30;40438;52.992;18.604;2023-03-19T14:22:54;21.34;46.94
54540;SHT30;40438;52.992;18.604;2023-03-19T14:25:24;21.34;47.03
54540;SHT30;40438;52.992;18.604;2023-03-19T14:27:53;21.31;47.10
54540;SHT30;40438;52.992;18.604;2023-03-19T14:30:30;21.30;47.05
54540;SHT30;40438;52.992;18.604;2023-03-19T14:33:00;21.32;46.98
54540;SHT30;40438;52.992;18.604;2023-03-19T14:35:31;21.32;47.02
54540;SHT30;40438;52.992;18.604;2023-03-19T14:37:59;21.32;46.95
54540;SHT30;40438;52.992;18.604;2023-03-19T14:40:31;21.32;46.96
54540;SHT30;40438;52.992;18.604;2023-03-19T14:43:06;21.32;46.99
54540;SHT30;40438;52.992;18.604;2023-03-19T14:45:45;21.31;47.01
54540;SHT30;40438;52.992;18.604;2023-03-19T14:48:23;21.31;47.05
54540;SHT30;40438;52.992;18.604;2023-03-19T14:54:01;21.31;46.99
54540;SHT30;40438;52.992;18.604;2023-03-19T14:56:33;21.31;47.06
54540;SHT30;40438;52.992;18.604;2023-03-19T14:58:59;21.27;47.09
54540;SHT30;40438;52.992;18.604;2023-03-19T15:01:26;21.27;47.06
54540;SHT30;40438;52.992;18.604;2023-03-19T15:03:54;21.26;47.10
54540;SHT30;40438;52.992;18.604;2023-03-19T15:06:20;21.26;47.08
54540;SHT30;40438;52.992;18.604;2023-03-19T15:08:48;21.28;47.09
54540;SHT30;40438;52.992;18.604;2023-03-19T15:11:43;21.26;47.12
54540;SHT30;40438;52.992;18.604;2023-03-19T15:14:28;21.24;47.19
54540;SHT30;40438;52.992;18.604;2023-03-19T15:17:02;21.26;47.13
54540;SHT30;40438;52.992;18.604;2023-03-19T15:19:31;21.26;47.14
54540;SHT30;40438;52.992;18.604;2023-03-19T15:22:04;21.24;47.16
54540;SHT30;40438;52.992;18.604;2023-03-19T15:24:35;21.26;47.14
54540;SHT30;40438;52.992;18.604;2023-03-19T15:27:19;21.22;47.20
54540;SHT30;40438;52.992;18.604;2023-03-19T15:29:45;21.21;47.24
54540;SHT30;40438;52.992;18.604;2023-03-19T15:32:11;21.20;47.17
54540;SHT30;40438;52.992;18.604;2023-03-19T15:34:37;21.20;47.20
54540;SHT30;40438;52.992;18.604;2023-03-19T15:37:04;21.21;47.17
54540;SHT30;40438;52.992;18.604;2023-03-19T15:39:33;21.21;47.16
54540;SHT30;40438;52.992;18.604;2023-03-19T15:42:02;21.17;47.19